Time;durP1;ratioP1;P1;durP2;ratioP2;P2;SDS_P1;SDS_P2;PMS_P1;PMS_P2;Temp;Humidity;BMP_temperature;BMP_pressure;BME280_temperature;BME280_humidity;BME280_pressure;Samples;Min_cycle;Max_cycle;Signal;HPM_P1;HPM_P2
2021/04/05 00:02:20;;;;;;;16.23;9.90;;;;;;;2.88;86.13;100084.47;3593825;39;20076;-48
2021/04/05 00:04:47;;;;;;;18.30;10.50;;;;;;;2.76;86.59;100085.63;3593675;39;20104;-42
2021/04/05 00:07:14;;;;;;;16.30;9.43;;;;;;;2.92;86.08;100064.47;3592205;39;20241;-45
2021/04/05 00:09:41;;;;;;;15.98;8.95;;;;;;;2.89;86.13;100063.44;3594041;39;20092;-48
2021/04/05 00:12:09;;;;;;;15.27;9.73;;;;;;;2.92;85.96;100039.19;3593877;39;20084;-47
2021/04/05 00:14:37;;;;;;;16.33;9.15;;;;;;;2.90;85.65;100027.25;3591317;39;20048;-45
2021/04/05 00:17:04;;;;;;;15.50;9.10;;;;;;;2.93;85.71;100024.88;3593954;39;20329;-46
2021/04/05 00:19:33;;;;;;;17.13;8.50;;;;;;;2.88;85.81;100021.28;3594312;39;20089;-47
2021/04/05 00:21:59;;;;;;;15.50;9.57;;;;;;;2.83;86.29;100025.25;3594130;39;20071;-50
2021/04/05 00:24:29;;;;;;;16.17;9.70;;;;;;;2.85;86.36;100027.03;3594150;39;20063;-45
2021/04/05 00:26:55;;;;;;;18.73;9.80;;;;;;;2.86;86.08;100017.78;3593596;39;20417;-48
2021/04/05 00:29:22;;;;;;;13.05;7.95;;;;;;;2.91;85.96;100021.41;3593934;39;20044;-46
2021/04/05 00:31:48;;;;;;;15.43;8.80;;;;;;;2.92;85.84;100010.50;3593936;39;20040;-45
2021/04/05 00:34:16;;;;;;;14.55;8.70;;;;;;;2.90;86.13;99996.91;3594096;39;20052;-45
2021/04/05 00:36:42;;;;;;;14.18;8.75;;;;;;;2.99;85.56;99979.63;3593560;39;20092;-47
2021/04/05 00:39:09;;;;;;;12.75;8.32;;;;;;;2.92;85.77;99982.69;3593895;39;20052;-46
2021/04/05 00:41:37;;;;;;;16.58;8.65;;;;;;;2.92;86.08;99991.13;3593997;39;20051;-46
2021/04/05 00:44:04;;;;;;;15.88;8.32;;;;;;;2.92;85.82;99988.63;3599158;39;20052;-46
2021/04/05 00:46:30;;;;;;;16.88;10.20;;;;;;;2.89;85.87;99982.53;3598540;39;20424;-54
2021/04/05 00:48:58;;;;;;;17.92;9.27;;;;;;;2.87;85.96;99977.44;3597462;39;20059;-45
2021/04/05 00:51:25;;;;;;;18.35;9.20;;;;;;;2.95;85.98;99967.63;3593969;39;20507;-44
2021/04/05 00:53:53;;;;;;;15.80;9.45;;;;;;;2.90;85.86;99959.84;3593855;39;20092;-48
2021/04/05 00:56:23;;;;;;;17.75;9.93;;;;;;;2.91;85.47;99946.44;3593202;39;20039;-45
2021/04/05 00:58:50;;;;;;;16.00;8.60;;;;;;;2.94;85.65;99943.16;3593614;39;20048;-43
2021/04/05 01:01:20;;;;;;;15.65;9.30;;;;;;;3.02;85.44;99936.78;3593593;39;20047;-47
2021/04/05 01:03:48;;;;;;;17.60;9.75;;;;;;;3.07;85.34;99930.25;3593580;39;20060;-45
2021/04/05 01:06:34;;;;;;;15.93;10.20;;;;;;;3.06;85.02;99910.81;3592211;39;20048;-45
2021/04/05 01:09:01;;;;;;;14.25;10.05;;;;;;;2.96;85.31;99906.19;3593410;39;20043;-49
2021/04/05 01:11:29;;;;;;;17.75;9.43;;;;;;;3.04;85.27;99885.44;3593705;39;20048;-45
2021/04/05 01:13:57;;;;;;;18.17;10.25;;;;;;;3.08;84.94;99883.91;3593293;39;20401;-43
2021/04/05 01:16:29;;;;;;;22.17;9.48;;;;;;;3.14;84.56;99868.13;3593310;39;20048;-46
2021/04/05 01:18:57;;;;;;;17.77;10.95;;;;;;;3.05;84.81;99866.97;3593338;39;20051;-43
2021/04/05 01:21:25;;;;;;;14.30;9.15;;;;;;;3.18;84.44;99863.25;3593527;39;20063;-43
2021/04/05 01:23:52;;;;;;;14.98;9.57;;;;;;;3.19;84.15;99856.53;3593311;39;20047;-50
2021/04/05 01:26:19;;;;;;;18.02;9.45;;;;;;;3.17;83.91;99853.09;3593120;39;20084;-46
2021/04/05 01:28:45;;;;;;;18.88;9.20;;;;;;;3.16;84.10;99838.72;3593164;39;20060;-49
2021/04/05 01:31:13;;;;;;;18.38;9.43;;;;;;;3.10;84.34;99839.34;3593267;39;20084;-44
2021/04/05 01:33:42;;;;;;;19.73;9.32;;;;;;;3.16;84.63;99836.19;3593239;39;20052;-49
2021/04/05 01:36:15;;;;;;;14.43;8.77;;;;;;;3.19;84.18;99816.97;3593302;39;20126;-44
2021/04/05 01:38:49;;;;;;;16.92;9.05;;;;;;;3.24;83.85;99809.56;3591599;39;20087;-42
2021/04/05 01:41:28;;;;;;;14.65;9.75;;;;;;;3.24;83.98;99801.97;3592364;39;20052;-48
2021/04/05 01:43:55;;;;;;;16.00;9.27;;;;;;;3.27;83.74;99795.34;3593242;39;20082;-45
2021/04/05 01:46:23;;;;;;;16.10;8.98;;;;;;;3.21;83.63;99777.41;3594033;39;20056;-43
2021/04/05 01:48:50;;;;;;;14.48;9.70;;;;;;;3.32;83.20;99777.81;3595106;39;20140;-49
2021/04/05 01:51:23;;;;;;;13.80;9.07;;;;;;;3.22;83.34;99758.88;3593176;39;20068;-50
2021/04/05 01:53:51;;;;;;;15.82;8.23;;;;;;;3.20;83.66;99757.09;3593211;39;20425;-45
2021/04/05 01:56:19;;;;;;;15.93;9.02;;;;;;;3.13;84.14;99750.94;3593102;39;20295;-46
2021/04/05 01:58:48;;;;;;;14.30;9.20;;;;;;;3.17;83.92;99731.69;3593070;39;20055;-46
2021/04/05 02:01:18;;;;;;;15.45;9.63;;;;;;;3.19;84.04;99727.53;3591802;39;20040;-45
2021/04/05 02:03:45;;;;;;;14.40;8.70;;;;;;;3.22;83.89;99722.59;3593151;39;20075;-44
2021/04/05 02:06:22;;;;;;;16.13;8.95;;;;;;;3.23;83.71;99719.25;3592831;39;20051;-45
2021/04/05 02:08:49;;;;;;;18.98;9.13;;;;;;;3.17;83.99;99694.59;3592887;39;20052;-45
2021/04/05 02:11:19;;;;;;;18.95;9.00;;;;;;;3.02;84.46;99682.22;3590127;39;20040;-44
2021/04/05 02:13:55;;;;;;;15.05;8.48;;;;;;;3.11;83.84;99678.34;3593168;39;20036;-49
2021/04/05 02:16:24;;;;;;;16.65;9.35;;;;;;;3.02;84.46;99673.78;3592015;39;20044;-50
2021/04/05 02:18:52;;;;;;;16.83;9.13;;;;;;;3.09;84.36;99674.88;3592926;39;20052;-43
2021/04/05 02:21:21;;;;;;;17.55;9.60;;;;;;;3.02;84.40;99656.09;3590503;39;20111;-48
2021/04/05 02:23:50;;;;;;;15.55;9.25;;;;;;;3.03;84.58;99656.13;3592683;39;20939;-48
2021/04/05 02:26:22;;;;;;;16.77;10.27;;;;;;;3.10;84.45;99639.53;3592633;39;20048;-51
2021/04/05 02:28:52;;;;;;;17.10;9.35;;;;;;;3.04;84.82;99635.09;3593103;39;20079;-51
2021/04/05 02:31:22;;;;;;;18.33;9.85;;;;;;;3.05;84.52;99629.25;3592935;39;20087;-47
2021/04/05 02:33:51;;;;;;;17.33;9.70;;;;;;;3.08;84.71;99622.56;3593133;39;20088;-51
2021/04/05 02:36:20;;;;;;;18.20;10.00;;;;;;;3.07;84.57;99619.19;3592620;39;20567;-47
2021/04/05 02:38:52;;;;;;;23.70;10.63;;;;;;;3.06;84.64;99617.47;3592817;39;20084;-42
2021/04/05 02:41:22;;;;;;;23.00;10.75;;;;;;;3.13;84.32;99599.19;3591970;39;20054;-51
2021/04/05 02:43:51;;;;;;;22.20;11.02;;;;;;;3.06;84.46;99577.00;3593097;39;20048;-46
2021/04/05 02:46:20;;;;;;;20.33;10.98;;;;;;;3.08;84.60;99579.59;3593139;39;20051;-43
2021/04/05 02:48:48;;;;;;;21.15;10.98;;;;;;;3.13;84.43;99571.34;3592873;39;20063;-45
2021/04/05 02:51:16;;;;;;;22.85;12.23;;;;;;;3.18;84.30;99563.94;3591597;39;20052;-46
2021/04/05 02:53:55;;;;;;;22.35;11.75;;;;;;;3.19;84.00;99556.44;3592821;39;20071;-48
2021/04/05 02:56:22;;;;;;;20.52;11.40;;;;;;;3.22;83.87;99556.53;3591797;39;20101;-47
2021/04/05 02:58:52;;;;;;;20.25;11.38;;;;;;;3.32;83.54;99563.63;3592688;39;20052;-49
2021/04/05 03:01:19;;;;;;;20.40;11.43;;;;;;;3.22;83.91;99551.47;3593024;39;20032;-43
2021/04/05 03:03:48;;;;;;;25.63;12.70;;;;;;;3.25;83.70;99538.94;3592743;39;20037;-43
2021/04/05 03:06:16;;;;;;;23.15;12.43;;;;;;;3.30;84.05;99519.72;3591107;39;20277;-44
2021/04/05 03:08:43;;;;;;;25.33;12.15;;;;;;;3.29;83.68;99514.63;3592485;39;20052;-46
2021/04/05 03:11:13;;;;;;;22.98;11.80;;;;;;;3.27;83.96;99511.16;3592753;39;20067;-43
2021/04/05 03:13:40;;;;;;;24.55;12.75;;;;;;;3.25;83.84;99518.69;3592452;39;20052;-44
2021/04/05 03:16:11;;;;;;;23.05;12.20;;;;;;;3.28;83.33;99498.59;3592624;39;20102;-48
2021/04/05 03:18:39;;;;;;;27.02;13.02;;;;;;;3.24;83.75;99484.09;3589990;39;20060;-43
2021/04/05 03:21:07;;;;;;;24.50;12.68;;;;;;;3.40;83.11;99477.03;3592433;39;20111;-47
2021/04/05 03:23:35;;;;;;;25.98;13.73;;;;;;;3.20;83.85;99479.72;3592838;39;20131;-45
2021/04/05 03:26:02;;;;;;;26.48;13.93;;;;;;;3.27;83.48;99473.22;3592281;39;20084;-49
2021/04/05 03:28:29;;;;;;;26.98;14.45;;;;;;;3.31;83.54;99470.84;3592215;39;20095;-42
2021/04/05 03:31:10;;;;;;;26.50;14.68;;;;;;;3.30;83.33;99471.66;3592369;39;20050;-49
2021/04/05 03:33:56;;;;;;;25.70;13.20;;;;;;;3.30;83.59;99464.06;3589835;39;20080;-45
2021/04/05 03:36:31;;;;;;;30.67;14.90;;;;;;;3.34;83.47;99462.50;3591598;39;20111;-47
2021/04/05 03:38:59;;;;;;;27.08;13.57;;;;;;;3.33;83.11;99463.31;3592911;39;20055;-46
2021/04/05 03:41:58;;;;;;;28.35;14.30;;;;;;;3.29;83.71;99444.66;3594110;39;20072;-47
2021/04/05 03:44:41;;;;;;;28.92;14.75;;;;;;;3.37;83.01;99426.31;3593412;39;20080;-45
2021/04/05 03:47:15;;;;;;;30.42;15.52;;;;;;;3.38;83.38;99416.28;3593641;39;20636;-44
2021/04/05 03:49:54;;;;;;;32.28;17.52;;;;;;;3.33;83.24;99407.66;3592182;39;20127;-46
2021/04/05 03:52:30;;;;;;;32.78;16.90;;;;;;;3.35;83.20;99405.19;3592880;39;20060;-45
2021/04/05 03:55:00;;;;;;;32.35;16.88;;;;;;;3.34;83.40;99403.47;3591160;39;20064;-49
2021/04/05 03:57:31;;;;;;;39.58;18.80;;;;;;;3.36;83.46;99394.25;3593309;39;20766;-46
2021/04/05 04:00:02;;;;;;;34.63;16.80;;;;;;;3.40;83.19;99402.00;3592873;39;20078;-43
2021/04/05 04:02:46;;;;;;;35.90;17.17;;;;;;;3.40;83.32;99402.00;3593868;39;20060;-47
2021/04/05 04:05:24;;;;;;;38.85;18.08;;;;;;;3.35;83.35;99390.00;3593870;39;20051;-43
2021/04/05 04:08:02;;;;;;;40.33;18.92;;;;;;;3.37;83.35;99384.16;3593599;39;20056;-45
2021/04/05 04:10:31;;;;;;;35.40;18.10;;;;;;;3.45;82.80;99392.03;3594134;39;20067;-42
2021/04/05 04:12:59;;;;;;;37.30;18.23;;;;;;;3.49;83.02;99376.13;3595096;39;20052;-45
2021/04/05 04:15:27;;;;;;;42.33;20.30;;;;;;;3.45;82.83;99365.03;3593740;39;20105;-46
2021/04/05 04:17:56;;;;;;;41.55;20.35;;;;;;;3.54;82.78;99367.00;3593798;39;20096;-46
2021/04/05 04:20:24;;;;;;;39.58;17.92;;;;;;;3.56;82.74;99370.47;3593744;39;20055;-48
2021/04/05 04:22:54;;;;;;;36.70;16.83;;;;;;;3.60;82.34;99366.34;3593731;39;20088;-44
2021/04/05 04:25:21;;;;;;;38.00;17.88;;;;;;;3.65;82.02;99377.47;3593746;39;20056;-45
2021/04/05 04:27:48;;;;;;;40.67;19.38;;;;;;;3.64;82.20;99379.16;3593684;39;20081;-46
2021/04/05 04:30:33;;;;;;;42.65;20.33;;;;;;;3.71;82.10;99381.06;3592362;39;20350;-45
2021/04/05 04:33:08;;;;;;;40.10;18.98;;;;;;;3.72;81.96;99354.94;3593534;39;20060;-47
2021/04/05 04:35:37;;;;;;;38.50;19.23;;;;;;;3.74;81.77;99352.44;3593891;39;20040;-49
2021/04/05 04:38:05;;;;;;;40.20;20.38;;;;;;;3.72;81.71;99342.28;3593834;39;20476;-47
2021/04/05 04:40:34;;;;;;;41.95;19.33;;;;;;;3.81;81.79;99346.78;3594013;39;20080;-46
2021/04/05 04:43:03;;;;;;;37.53;18.50;;;;;;;3.82;81.66;99334.16;3593606;39;20059;-44
2021/04/05 04:45:30;;;;;;;48.15;20.02;;;;;;;3.75;81.67;99326.34;3593754;39;20067;-48
2021/04/05 04:47:57;;;;;;;39.35;17.90;;;;;;;3.76;81.71;99323.00;3593589;39;20056;-47
2021/04/05 04:50:27;;;;;;;38.25;18.48;;;;;;;3.86;81.12;99322.47;3593542;39;20129;-44
2021/04/05 04:52:54;;;;;;;38.63;18.00;;;;;;;3.87;81.27;99318.25;3593684;39;20418;-47
2021/04/05 04:55:22;;;;;;;34.80;17.65;;;;;;;3.93;80.93;99310.81;3593482;39;20060;-44
2021/04/05 04:57:49;;;;;;;37.63;18.55;;;;;;;3.97;80.85;99293.25;3596190;39;20056;-44
2021/04/05 05:00:16;;;;;;;40.90;18.35;;;;;;;4.03;80.34;99310.31;3599207;39;20048;-42
2021/04/05 05:02:45;;;;;;;36.70;17.92;;;;;;;4.03;80.04;99297.66;3599926;39;20083;-44
2021/04/05 05:05:15;;;;;;;33.28;16.98;;;;;;;4.10;80.30;99284.34;3594920;39;20056;-43
2021/04/05 05:07:42;;;;;;;37.58;17.52;;;;;;;4.08;79.86;99275.84;3594392;39;20060;-44
2021/04/05 05:10:11;;;;;;;37.33;17.70;;;;;;;4.06;80.39;99268.19;3593617;39;20075;-43
2021/04/05 05:12:41;;;;;;;35.20;17.65;;;;;;;4.18;79.98;99272.75;3590796;39;20320;-48
2021/04/05 05:15:11;;;;;;;36.42;18.00;;;;;;;4.17;79.36;99263.44;3593474;39;20052;-47
2021/04/05 05:17:41;;;;;;;37.58;17.02;;;;;;;4.20;79.30;99257.59;3591027;39;20056;-43
2021/04/05 05:20:09;;;;;;;38.78;18.20;;;;;;;4.26;79.26;99255.25;3593611;39;20060;-46
2021/04/05 05:22:37;;;;;;;36.10;17.35;;;;;;;4.32;78.96;99251.19;3590313;39;20056;-43
2021/04/05 05:25:08;;;;;;;41.45;18.15;;;;;;;4.35;78.42;99258.03;3594023;39;20052;-49
2021/04/05 05:27:40;;;;;;;39.53;18.38;;;;;;;4.32;78.94;99246.13;3593443;39;20067;-48
2021/04/05 05:30:20;;;;;;;41.15;17.98;;;;;;;4.40;78.40;99260.69;3593112;39;20048;-49
2021/04/05 05:32:54;;;;;;;37.55;18.00;;;;;;;4.53;77.53;99252.56;3592472;39;20435;-46
2021/04/05 05:35:23;;;;;;;35.37;16.07;;;;;;;4.53;78.06;99242.44;3593034;39;20050;-49
2021/04/05 05:37:50;;;;;;;36.28;16.83;;;;;;;4.55;77.84;99229.00;3592920;39;20282;-47
2021/04/05 05:40:24;;;;;;;32.47;15.88;;;;;;;4.62;77.62;99231.66;3591876;39;20318;-45
2021/04/05 05:43:05;;;;;;;35.97;17.73;;;;;;;4.63;77.79;99225.81;3593145;39;20056;-47
2021/04/05 05:45:41;;;;;;;;;;;;;;;4.59;77.63;99214.72;3592236;39;20048;-45
2021/04/05 05:48:37;;;;;;;35.38;17.60;;;;;;;4.48;78.64;99200.91;3592974;39;20278;-46
2021/04/05 05:51:46;;;;;;;34.30;16.27;;;;;;;4.72;77.07;99196.47;3592344;39;20076;-50
2021/04/05 05:54:12;;;;;;;36.70;16.95;;;;;;;4.78;76.66;99180.56;3589479;39;20048;-50
2021/04/05 05:56:50;;;;;;;30.25;14.88;;;;;;;4.83;75.84;99166.28;3591592;39;20088;-47
2021/04/05 05:59:34;;;;;;;31.33;15.20;;;;;;;4.90;75.87;99152.06;3591176;39;20080;-50
2021/04/05 06:02:15;;;;;;;27.75;14.85;;;;;;;4.85;76.05;99132.56;3589521;39;20083;-47
2021/04/05 06:05:05;;;;;;;25.90;14.68;;;;;;;5.02;75.54;99157.44;3590978;39;20072;-47
2021/04/05 06:07:32;;;;;;;34.05;15.98;;;;;;;5.05;75.40;99163.44;3592940;39;20072;-45
2021/04/05 06:10:02;;;;;;;29.92;14.63;;;;;;;5.00;74.90;99149.81;3593156;39;20135;-47
2021/04/05 06:12:51;;;;;;;32.28;16.48;;;;;;;5.12;74.83;99154.28;3593142;39;20083;-46
2021/04/05 06:15:22;;;;;;;31.27;16.00;;;;;;;5.15;74.23;99159.44;3591578;39;20051;-48
2021/04/05 06:18:23;;;;;;;29.50;15.68;;;;;;;5.29;73.86;99150.44;3592765;39;20044;-46
2021/04/05 06:21:23;;;;;;;33.00;15.50;;;;;;;5.45;73.61;99156.69;3592354;39;20428;-46
2021/04/05 06:23:51;;;;;;;25.35;14.55;;;;;;;5.36;73.08;99139.63;3592018;39;20028;-48
2021/04/05 06:26:39;;;;;;;38.10;16.08;;;;;;;5.59;72.62;99127.41;3590691;39;20056;-44
2021/04/05 06:29:43;;;;;;;21.75;11.75;;;;;;;5.50;72.15;99121.25;3589651;39;20092;-42
2021/04/05 06:32:25;;;;;;;35.13;15.73;;;;;;;5.58;72.62;99112.97;3593609;39;20111;-44
2021/04/05 06:35:00;;;;;;;30.30;15.38;;;;;;;5.70;72.44;99114.06;3591832;39;20067;-48
2021/04/05 06:37:35;;;;;;;29.05;14.50;;;;;;;5.80;71.59;99111.72;3594571;39;20051;-43
2021/04/05 06:40:12;;;;;;;30.17;15.45;;;;;;;5.76;71.23;99097.25;3593524;39;20875;-44
2021/04/05 06:43:21;;;;;;;31.50;15.73;;;;;;;5.82;71.66;99092.31;3590379;39;20036;-44
2021/04/05 06:46:05;;;;;;;28.83;12.30;;;;;;;5.81;70.90;99060.09;3587099;39;20044;-48
2021/04/05 06:49:09;;;;;;;28.65;13.10;;;;;;;5.75;70.77;99072.69;3589238;39;20062;-43
2021/04/05 06:52:05;;;;;;;30.10;15.20;;;;;;;5.77;71.17;99068.47;3587295;39;20052;-41
2021/04/05 06:55:07;;;;;;;30.43;15.13;;;;;;;5.93;70.81;99056.13;3594989;39;20059;-44
2021/04/05 06:58:08;;;;;;;32.17;14.50;;;;;;;5.86;71.24;99058.50;3591776;39;20052;-42
2021/04/05 07:00:46;;;;;;;30.63;14.77;;;;;;;5.97;70.63;99057.88;3592731;39;20100;-43
2021/04/05 07:03:31;;;;;;;33.83;13.82;;;;;;;5.92;70.93;99045.09;3594112;39;20413;-43
2021/04/05 07:06:24;;;;;;;33.90;15.03;;;;;;;5.88;71.18;99041.59;3592824;39;20051;-43
2021/04/05 07:09:04;;;;;;;33.83;16.25;;;;;;;6.02;70.60;99052.03;3593432;39;20382;-42
2021/04/05 07:12:01;;;;;;;29.13;12.48;;;;;;;6.00;70.97;99029.97;3590327;39;20072;-46
2021/04/05 07:14:37;;;;;;;31.98;15.85;;;;;;;6.05;70.71;99033.44;3591927;39;20032;-44
2021/04/05 07:17:17;;;;;;;34.25;15.35;;;;;;;6.13;70.57;99040.38;3591791;39;20048;-47
2021/04/05 07:20:07;;;;;;;31.75;14.77;;;;;;;6.12;70.42;99014.94;3591524;39;20708;-45
2021/04/05 07:22:53;;;;;;;33.15;14.27;;;;;;;6.18;70.53;99029.44;3592328;39;20097;-43
2021/04/05 07:25:34;;;;;;;27.13;13.67;;;;;;;6.13;70.87;99020.03;3595096;39;20144;-46
2021/04/05 07:28:16;;;;;;;38.83;17.60;;;;;;;6.09;70.34;99015.72;3596440;39;20066;-45
2021/04/05 07:30:46;;;;;;;29.73;14.27;;;;;;;6.23;70.12;99015.09;3588845;39;20048;-43
2021/04/05 07:33:23;;;;;;;34.85;16.20;;;;;;;6.34;70.14;99008.53;3594773;39;20064;-42
2021/04/05 07:36:16;;;;;;;32.65;16.67;;;;;;;6.42;70.10;99014.56;3596258;39;20072;-43
2021/04/05 07:39:01;;;;;;;35.33;16.97;;;;;;;6.43;70.23;99011.19;3590838;39;20051;-44
2021/04/05 07:41:45;;;;;;;30.80;16.13;;;;;;;6.31;71.66;98999.16;3596497;39;20051;-42
2021/04/05 07:44:49;;;;;;;39.08;19.25;;;;;;;6.27;73.79;99001.63;3594737;39;20039;-43
2021/04/05 07:47:34;;;;;;;36.78;18.25;;;;;;;6.20;74.95;99007.44;3593331;39;20469;-48
2021/04/05 07:50:12;;;;;;;38.60;17.63;;;;;;;6.13;77.20;98996.31;3595268;39;20060;-43
2021/04/05 07:52:51;;;;;;;40.80;18.95;;;;;;;6.02;80.65;98995.31;3594784;39;20176;-44
2021/04/05 07:55:18;;;;;;;42.90;18.98;;;;;;;5.99;80.69;98992.69;3589532;39;20043;-45
2021/04/05 07:58:21;;;;;;;38.85;17.95;;;;;;;5.80;81.20;98994.03;3594121;39;20056;-47
2021/04/05 08:01:14;;;;;;;50.90;22.60;;;;;;;5.81;85.33;99001.69;3592023;39;20479;-42
2021/04/05 08:04:05;;;;;;;42.47;21.13;;;;;;;5.75;84.66;98993.97;3592024;39;20041;-44
2021/04/05 08:07:03;;;;;;;44.60;21.23;;;;;;;5.63;87.06;98994.59;3590790;39;20084;-44
2021/04/05 08:09:46;;;;;;;39.10;19.65;;;;;;;5.53;86.94;98994.41;3593099;39;20052;-44
2021/04/05 08:12:37;;;;;;;46.67;20.63;;;;;;;5.58;88.47;98985.19;3592354;39;20132;-44
2021/04/05 08:15:12;;;;;;;47.55;20.17;;;;;;;5.51;88.27;98989.31;3592934;39;20342;-42
2021/04/05 08:18:12;;;;;;;46.67;23.02;;;;;;;5.49;89.01;98973.19;3591374;39;20052;-45
2021/04/05 08:20:53;;;;;;;41.85;19.45;;;;;;;5.55;88.79;98980.91;3591287;39;20048;-43
2021/04/05 08:23:30;;;;;;;44.00;21.77;;;;;;;5.60;89.27;98983.53;3592841;39;20060;-43
2021/04/05 08:26:25;;;;;;;42.05;20.77;;;;;;;5.62;89.19;98984.41;3593504;39;20510;-45
2021/04/05 08:29:10;;;;;;;43.28;21.17;;;;;;;5.47;88.84;98985.00;3592318;39;20325;-42
2021/04/05 08:32:01;;;;;;;45.42;22.55;;;;;;;5.63;89.89;98983.56;3593296;39;20048;-44
2021/04/05 08:34:55;;;;;;;44.10;19.83;;;;;;;5.59;89.77;98990.31;3589892;39;20056;-41
2021/04/05 08:37:46;;;;;;;45.47;20.65;;;;;;;5.56;90.04;98986.84;3593141;39;20096;-41
2021/04/05 08:40:45;;;;;;;45.35;22.92;;;;;;;5.55;91.64;98983.47;3592186;39;20051;-46
2021/04/05 08:43:37;;;;;;;48.45;24.30;;;;;;;5.44;92.44;98979.84;3593371;39;20690;-42
2021/04/05 08:46:19;;;;;;;53.00;24.83;;;;;;;5.49;91.85;98982.47;3593536;39;20413;-44
2021/04/05 08:48:54;;;;;;;49.65;21.70;;;;;;;5.45;92.38;98981.56;3591998;39;20048;-41
2021/04/05 08:51:44;;;;;;;52.20;24.10;;;;;;;5.51;93.09;98974.06;3590603;39;20063;-41
2021/04/05 08:54:20;;;;;;;47.53;22.13;;;;;;;5.49;91.99;98977.41;3590897;39;20121;-42
2021/04/05 08:56:56;;;;;;;49.37;23.80;;;;;;;5.39;92.70;98983.13;3594114;39;20064;-42
2021/04/05 09:00:05;;;;;;;48.17;21.38;;;;;;;5.42;92.17;98973.06;3594626;39;20702;-41
2021/04/05 09:02:48;;;;;;;54.92;25.95;;;;;;;5.34;93.11;98973.75;3581240;40;20088;-45
2021/04/05 09:05:21;;;;;;;47.35;23.35;;;;;;;5.56;93.75;98976.69;3580702;40;20041;-45
2021/04/05 09:08:06;;;;;;;40.22;18.90;;;;;;;5.48;92.04;98975.69;3587054;39;20140;-47
2021/04/05 09:10:45;;;;;;;53.00;23.48;;;;;;;5.51;93.15;98971.53;3596221;39;20329;-48
2021/04/05 09:13:22;;;;;;;45.65;19.52;;;;;;;5.59;91.50;98976.72;3597952;39;20050;-45
2021/04/05 09:16:09;;;;;;;49.97;22.15;;;;;;;5.70;92.67;98974.41;3595507;39;20052;-46
2021/04/05 09:18:55;;;;;;;51.42;24.90;;;;;;;5.70;93.12;98966.78;3592319;39;20051;-43
2021/04/05 09:21:48;;;;;;;52.50;24.02;;;;;;;5.83;93.21;98978.88;3595403;39;20055;-45
2021/04/05 09:24:46;;;;;;;47.90;25.83;;;;;;;5.84;93.48;98967.88;3594657;39;20091;-42
2021/04/05 09:27:38;;;;;;;51.40;25.08;;;;;;;5.84;93.06;98965.34;3590798;39;20051;-43
2021/04/05 09:30:29;;;;;;;48.85;25.27;;;;;;;5.83;92.27;98961.94;3595344;39;20320;-44
2021/04/05 09:33:21;;;;;;;44.78;24.85;;;;;;;5.82;92.65;98957.69;3590549;39;20130;-41
2021/04/05 09:36:15;;;;;;;53.00;27.45;;;;;;;5.75;92.37;98963.50;3593657;39;20080;-45
2021/04/05 09:39:00;;;;;;;51.50;24.90;;;;;;;5.88;92.62;98967.09;3594259;39;20052;-43
2021/04/05 09:42:10;;;;;;;45.20;23.73;;;;;;;5.86;92.42;98959.44;3590613;39;20048;-44
2021/04/05 09:45:09;;;;;;;52.75;23.90;;;;;;;5.78;92.56;98952.53;3590489;39;20128;-42
2021/04/05 09:48:07;;;;;;;45.40;23.73;;;;;;;5.76;93.11;98967.72;3590075;39;20052;-43
2021/04/05 09:51:05;;;;;;;52.17;25.10;;;;;;;5.70;92.34;98954.09;3592976;39;20402;-44
2021/04/05 09:53:57;;;;;;;51.35;25.48;;;;;;;5.60;94.65;98976.78;3592892;39;20052;-44
2021/04/05 09:56:31;;;;;;;56.45;27.50;;;;;;;5.61;96.71;98990.31;3592292;39;20040;-41
2021/04/05 09:59:08;;;;;;;56.95;27.27;;;;;;;5.43;98.03;98979.84;3593055;39;20063;-41
2021/04/05 10:01:37;;;;;;;64.03;30.27;;;;;;;5.28;99.38;99044.69;3593383;39;20067;-42
2021/04/05 10:04:07;;;;;;;24.70;12.23;;;;;;;4.77;96.68;99063.06;3593062;39;20063;-41
2021/04/05 10:06:36;;;;;;;15.35;8.63;;;;;;;4.55;96.25;99064.25;3593616;39;20242;-43
2021/04/05 10:09:07;;;;;;;11.68;5.55;;;;;;;4.49;95.59;99060.72;3593192;39;20067;-41
2021/04/05 10:11:39;;;;;;;9.10;5.03;;;;;;;4.25;95.86;99071.09;3591818;39;20425;-44
2021/04/05 10:14:10;;;;;;;6.25;3.15;;;;;;;4.15;96.32;99062.41;3592911;39;20741;-43
2021/04/05 10:16:43;;;;;;;6.22;2.70;;;;;;;4.09;96.38;99068.19;3592882;39;20063;-45
2021/04/05 10:19:17;;;;;;;8.65;4.18;;;;;;;4.14;96.09;99065.78;3596568;39;20035;-42
2021/04/05 10:21:54;;;;;;;11.27;5.25;;;;;;;3.91;95.88;99072.78;3592648;39;20047;-45
2021/04/05 10:24:22;;;;;;;5.20;2.53;;;;;;;3.95;97.08;99069.53;3591285;39;20137;-44
2021/04/05 10:26:52;;;;;;;17.65;8.05;;;;;;;4.25;94.90;99063.50;3593026;39;20060;-47
2021/04/05 10:29:26;;;;;;;4.68;2.42;;;;;;;4.14;95.16;99067.44;3592793;39;20036;-41
2021/04/05 10:31:58;;;;;;;8.10;3.50;;;;;;;4.23;94.82;99066.00;3592685;39;20321;-43
2021/04/05 10:34:26;;;;;;;7.43;3.97;;;;;;;4.22;95.39;99066.81;3593829;39;20059;-40
2021/04/05 10:37:20;;;;;;;7.45;3.28;;;;;;;4.27;96.32;99060.19;3593332;39;20083;-42
2021/04/05 10:39:51;;;;;;;4.47;1.88;;;;;;;4.51;94.58;99057.38;3592391;39;20107;-43
2021/04/05 10:42:25;;;;;;;4.53;2.00;;;;;;;4.54;94.99;99067.59;3592630;39;20040;-43
2021/04/05 10:45:10;;;;;;;2.80;1.25;;;;;;;4.70;92.88;99060.34;3592715;39;20060;-42
2021/04/05 10:47:49;;;;;;;3.58;1.35;;;;;;;4.84;93.27;99049.69;3591903;39;20083;-42
2021/04/05 10:50:18;;;;;;;1.33;0.90;;;;;;;4.74;92.45;99039.31;3593764;39;20101;-41
2021/04/05 10:52:51;;;;;;;0.80;0.60;;;;;;;4.65;91.94;99036.56;3594718;39;20044;-43
2021/04/05 10:55:25;;;;;;;1.55;0.70;;;;;;;4.89;90.38;99048.94;3593325;39;20052;-42
2021/04/05 10:58:01;;;;;;;1.92;0.50;;;;;;;4.68;93.75;99050.19;3593049;39;20067;-42
2021/04/05 11:00:39;;;;;;;0.70;0.60;;;;;;;5.04;90.37;99049.28;3594390;39;20088;-42
2021/04/05 11:03:17;;;;;;;0.50;0.40;;;;;;;5.34;90.42;99049.88;3594627;39;20400;-43
2021/04/05 11:05:49;;;;;;;1.95;0.60;;;;;;;5.36;88.89;99053.34;3591502;39;20052;-43
2021/04/05 11:08:23;;;;;;;1.38;0.50;;;;;;;5.01;89.29;99052.59;3592680;39;20054;-42
2021/04/05 11:10:59;;;;;;;1.25;0.57;;;;;;;5.17;90.93;99065.59;3595870;39;20040;-41
2021/04/05 11:13:26;;;;;;;1.20;0.50;;;;;;;5.22;88.86;99057.28;3594181;39;20054;-43
2021/04/05 11:15:54;;;;;;;0.90;0.50;;;;;;;5.65;86.88;99054.72;3594416;39;20055;-42
2021/04/05 11:18:23;;;;;;;3.08;0.70;;;;;;;5.39;85.19;99046.59;3594014;39;20483;-42
2021/04/05 11:20:51;;;;;;;1.50;0.50;;;;;;;5.53;87.07;99048.56;3594461;39;20196;-42
2021/04/05 11:23:23;;;;;;;1.20;0.80;;;;;;;5.71;82.38;99042.97;3594294;39;20436;-42
2021/04/05 11:25:52;;;;;;;0.85;0.60;;;;;;;5.34;85.72;99042.28;3594425;39;20606;-43
2021/04/05 11:28:31;;;;;;;1.13;0.73;;;;;;;5.21;86.03;99040.31;3594178;39;20052;-44
2021/04/05 11:31:04;;;;;;;1.63;1.20;;;;;;;5.30;86.99;99044.72;3593532;39;20067;-45
2021/04/05 11:33:34;;;;;;;1.35;1.20;;;;;;;5.25;88.43;99053.94;3596923;39;20409;-42
2021/04/05 11:36:02;;;;;;;1.17;1.08;;;;;;;5.05;87.91;99067.06;3593990;39;20051;-43
2021/04/05 11:38:30;;;;;;;2.08;1.45;;;;;;;5.16;89.07;99074.88;3597945;39;20115;-41
2021/04/05 11:41:03;;;;;;;1.77;1.00;;;;;;;4.72;89.52;99084.91;3597726;39;20068;-42
2021/04/05 11:43:39;;;;;;;2.20;1.30;;;;;;;4.32;91.63;99073.81;3595251;39;20058;-44
2021/04/05 11:46:10;;;;;;;1.75;0.90;;;;;;;4.12;91.99;99087.69;3595679;39;20051;-44
2021/04/05 11:48:37;;;;;;;1.90;0.90;;;;;;;4.16;90.57;99068.34;3591565;39;20050;-41
2021/04/05 11:51:06;;;;;;;1.25;1.13;;;;;;;4.08;89.40;99073.22;3594161;39;20076;-41
2021/04/05 11:53:42;;;;;;;2.47;0.70;;;;;;;4.14;89.92;99073.38;3594251;39;20514;-41
2021/04/05 11:56:16;;;;;;;1.25;0.68;;;;;;;4.22;89.79;99069.34;3594171;39;20388;-42
2021/04/05 11:58:56;;;;;;;0.77;0.63;;;;;;;4.63;89.70;99073.72;3591658;39;20064;-41
2021/04/05 12:01:24;;;;;;;2.03;1.00;;;;;;;4.28;90.98;99079.63;3590409;39;20099;-44
2021/04/05 12:03:51;;;;;;;2.25;1.02;;;;;;;4.65;89.39;99085.59;3597297;39;20052;-43
2021/04/05 12:06:39;;;;;;;1.35;0.98;;;;;;;4.86;87.46;99072.56;3592209;39;20070;-43
2021/04/05 12:09:10;;;;;;;1.75;1.10;;;;;;;5.18;87.40;99077.47;3596299;39;20059;-45
2021/04/05 12:11:45;;;;;;;4.00;1.58;;;;;;;5.35;87.18;99076.13;3595151;39;20080;-41